Messwerte Mwanza

Temperatur

Temperatur
°C
1573650000 16.00 16.00 26
1573653600 17.00 17.00 26
1573657200 18.00 18.00 26
1573660800 19.00 19.00 24
1573664400 20.00 20.00 24
1573668000 21.00 21.00 24
1573671600 22.00 22.00 23
1573675200 23.00 23.00 24
1573678800 0.00 0.00 23
1573682400 1.00 1.00 23
1573686000 2.00 2.00
1573689600 3.00 3.00 23
1573693200 4.00 4.00 23
1573696800 5.00 5.00 21
1573700400 6.00 6.00 20
1573704000 7.00 7.00 21
1573707600 8.00 8.00
1573711200 9.00 9.00 21
1573714800 10.00 10.00 22
1573718400 11.00 11.00 22
1573722000 12.00 12.00
1573725600 13.00 13.00 24
1573729200 14.00 14.00 22
1573732800 15.00 15.00

Aktuellste Messwerte

Wettercharakter
Wetter: wechselnd bewölkt
Wind
20 km/hWindrichtung: Nordwest
Luftdruck
1014 hPa
Messzeit: 14. November 2019, 15.00Datenquelle: METAR

Weitere Messstationen in der Nähe

Messstation Temperatur Entfernung
Musoma 27 °C 145 km
Bukoba 25 °C 176 km
Entebbe 27 °C 285 km
Tabora 31 °C 290 km
Kigali 20 °C 316 km
Kisumu 28 °C 333 km
Arusha 25 °C 422 km

Wind

Windrichtung Böen Mittelwind
° km/h km/h
1573650000 16.00 15.00 - 16.00 330° 15
1573653600 17.00 16.00 - 17.00 330° 20
1573657200 18.00 17.00 - 18.00 300° 20
1573660800 19.00 18.00 - 19.00 330° 10
1573664400 20.00 19.00 - 20.00 0
1573668000 21.00 20.00 - 21.00 20° 10
1573671600 22.00 21.00 - 22.00 20° 10
1573675200 23.00 22.00 - 23.00 0
1573678800 0.00 23.00 - 0.00 0
1573682400 1.00 0.00 - 1.00 0
1573686000 2.00 1.00 - 2.00
1573689600 3.00 2.00 - 3.00 0
1573693200 4.00 3.00 - 4.00 300° 40
1573696800 5.00 4.00 - 5.00 300° 45
1573700400 6.00 5.00 - 6.00 0
1573704000 7.00 6.00 - 7.00 360° 15
1573707600 8.00 7.00 - 8.00
1573711200 9.00 8.00 - 9.00 50° 20
1573714800 10.00 9.00 - 10.00 0
1573718400 11.00 10.00 - 11.00 130° 20
1573722000 12.00 11.00 - 12.00
1573725600 13.00 12.00 - 13.00 0
1573729200 14.00 13.00 - 14.00 360° 20
1573732800 15.00 14.00 - 15.00 300° 20

Ihre Wetterstation

Fehlt Ihre Wetterstation auf unserem Portal?

Schreiben Sie an network@meteonews.ch